Sekalaisia screenshotteja..

<< < (541/730) > >>

J Ahponen:
Muistaakseni ei ole mitään fixiä tohon. Laittaa sen lisäpainon periaatteessa laukkuina. ZFW on kuitenkin se mikä kaiken määrää hyvin pitkälle. Ei se nyt paljoa voi haitata jo CG on pari senttiä vinossa.

Toi lisäpaino ZFW:iin tais olla ratkasuna myös naxin foorumeilla.

AmiGo98:
Eilen Zürichistä Düsseldorfiin





Tänään aamusella Munchenistä Tegeliin




Joku jätkä tuli tunnistamaan matkalla Helsinkiin

Joona:
Nousua 04R:ltä Vantaalta iltatuimaan



Kaarrellaan Frankfurtissa loppuosalle.



Kuka yrittää viime hetken nousua

3GM65D:

AmiGo98:
Tegelissä oli nättiä cavokkia


Vähän kuitenkin sivutuuli otti vempaimeemme


Kölniin illan viimeisissä auringonvaloissa


Löytyi vihdoinkin hyvä virtuaali toiselta mantereelta




Lähestymistä hieman paremmissa olosuhteissa kun oli vielä pari tuntia sitten (KBLI 041453Z 00000KT 1/16SM R16/0500V0700FT FG VV000 04/04 A3048 RMK AO2 SLP329 T00440039 53006 lupailtiin aikasemmin)

Navigation

Up one level

Next page

Previous page